Time;durP1;ratioP1;P1;durP2;ratioP2;P2;SDS_P1;SDS_P2;PMS_P1;PMS_P2;Temp;Humidity;BMP_temperature;BMP_pressure;BME280_temperature;BME280_humidity;BME280_pressure;Samples;Min_cycle;Max_cycle;Signal;HPM_P1;HPM_P2
2022/01/06 00:02:08;;;;;;;8.57;3.42;;;;;;;4.41;100.00;100377.75;5013271;28;20156;-72
2022/01/06 00:04:52;;;;;;;7.13;2.80;;;;;;;4.35;100.00;100371.09;5012973;28;20069;-73
2022/01/06 00:07:36;;;;;;;8.40;3.45;;;;;;;4.38;100.00;100367.41;5013945;28;20092;-73
2022/01/06 00:10:21;;;;;;;12.52;3.38;;;;;;;4.32;100.00;100373.94;4999409;28;20052;-72
2022/01/06 00:13:10;;;;;;;11.30;3.15;;;;;;;4.30;100.00;100380.25;5013020;28;20088;-72
2022/01/06 00:24:43;;;;;;;8.18;3.03;;;;;;;4.21;100.00;100387.00;5012993;28;20064;-72
2022/01/06 00:27:27;;;;;;;;;;;;;;;4.23;100.00;100385.09;5013903;28;20124;-71
2022/01/06 00:30:11;;;;;;;12.73;3.20;;;;;;;4.23;100.00;100390.38;5012757;28;19963;-72
2022/01/06 00:32:55;;;;;;;11.45;3.13;;;;;;;4.26;100.00;100386.69;5013004;28;20119;-72
2022/01/06 00:35:39;;;;;;;6.15;2.80;;;;;;;4.25;100.00;100387.66;5013621;28;20470;-72
2022/01/06 00:38:25;;;;;;;17.90;4.40;;;;;;;4.25;100.00;100377.09;4998667;28;20398;-73
2022/01/06 00:41:09;;;;;;;12.52;3.60;;;;;;;4.24;100.00;100393.84;5012531;28;20116;-73
2022/01/06 00:43:53;;;;;;;;;;;;;;;4.27;100.00;100383.94;5014003;28;20147;-72
2022/01/06 00:46:37;;;;;;;8.10;2.77;;;;;;;4.23;100.00;100389.53;5012044;28;20003;-73
2022/01/06 00:49:20;;;;;;;;;;;;;;;4.23;100.00;100390.38;5012798;28;20117;-72
2022/01/06 00:52:04;;;;;;;11.73;2.90;;;;;;;4.25;100.00;100387.66;5013454;28;20372;-73
2022/01/06 00:54:49;;;;;;;14.40;3.90;;;;;;;4.21;100.00;100386.13;5012372;28;20054;-73
2022/01/06 00:57:33;;;;;;;15.63;4.22;;;;;;;4.22;100.00;100393.09;4998105;28;20466;-73
2022/01/06 01:00:17;;;;;;;10.48;3.58;;;;;;;4.24;100.00;100389.44;5012302;28;20506;-73
2022/01/06 01:03:00;;;;;;;13.80;3.40;;;;;;;4.23;100.00;100389.53;5013050;28;20048;-73
2022/01/06 01:05:45;;;;;;;;;;;;;;;4.22;100.00;100387.84;5013637;28;20107;-73
2022/01/06 01:08:32;;;;;;;10.52;3.28;;;;;;;4.21;100.00;100389.63;4998287;28;20387;-73
2022/01/06 01:11:16;;;;;;;11.23;3.70;;;;;;;4.20;100.00;100395.00;5011947;28;20045;-73
2022/01/06 01:14:16;;;;;;;12.52;3.05;;;;;;;4.29;100.00;100404.97;5012171;28;20069;-73
2022/01/06 01:17:02;;;;;;;15.80;3.17;;;;;;;4.27;100.00;100402.41;5012715;28;20048;-72
2022/01/06 01:19:46;;;;;;;9.82;3.38;;;;;;;4.24;100.00;100418.44;5013393;28;20389;-72
2022/01/06 01:22:30;;;;;;;6.15;3.10;;;;;;;4.26;100.00;100418.38;5013108;28;20163;-73
2022/01/06 01:25:14;;;;;;;12.60;3.40;;;;;;;4.29;100.00;100421.63;5011799;28;20421;-72
2022/01/06 01:27:59;;;;;;;12.00;4.25;;;;;;;4.22;100.00;100422.13;5011966;28;20041;-73
2022/01/06 01:33:46;;;;;;;15.23;4.75;;;;;;;4.23;100.00;100422.03;5011887;28;20108;-73
2022/01/06 01:36:30;;;;;;;9.02;3.53;;;;;;;4.23;100.00;100427.31;5012550;28;20398;-71
2022/01/06 01:39:14;;;;;;;10.23;3.63;;;;;;;4.28;100.00;100429.66;5011910;28;20108;-70
2022/01/06 01:41:58;;;;;;;9.60;3.17;;;;;;;4.23;100.00;100429.09;5011564;28;20180;-72
2022/01/06 01:44:44;;;;;;;8.63;3.83;;;;;;;4.30;100.00;100438.31;5012918;28;20076;-72
2022/01/06 01:47:38;;;;;;;16.60;3.60;;;;;;;4.29;100.00;100439.25;5011512;28;20468;-73
2022/01/06 01:50:22;;;;;;;9.63;3.45;;;;;;;4.27;100.00;100436.72;5011934;28;20096;-73
2022/01/06 01:53:06;;;;;;;;;;;;;;;4.29;100.00;100437.44;5013215;28;20129;-72
2022/01/06 01:55:51;;;;;;;9.18;4.43;;;;;;;4.30;100.00;100440.94;5012751;28;19920;-73
2022/01/06 01:58:35;;;;;;;15.20;3.95;;;;;;;4.24;100.00;100436.94;4998315;28;20421;-72
2022/01/06 02:01:19;;;;;;;15.20;4.10;;;;;;;4.20;100.00;100432.81;5015263;28;20080;-73
2022/01/06 02:04:03;;;;;;;;;;;;;;;4.22;100.00;100437.97;5017194;28;20044;-73
2022/01/06 02:06:47;;;;;;;8.85;3.95;;;;;;;4.18;100.00;100447.88;5015118;28;19920;-72
2022/01/06 02:09:31;;;;;;;;;;;;;;;4.19;100.00;100454.88;5016510;28;20069;-72
2022/01/06 02:12:26;;;;;;;13.97;3.60;;;;;;;4.16;100.00;100451.56;5016640;28;20000;-73
2022/01/06 02:15:11;;;;;;;21.17;3.97;;;;;;;4.25;100.00;100450.97;5015962;28;20072;-73
2022/01/06 02:17:54;;;;;;;7.13;4.05;;;;;;;4.22;100.00;100453.78;5014726;28;20053;-73
2022/01/06 02:20:38;;;;;;;11.70;3.83;;;;;;;4.22;100.00;100451.16;5015197;28;20442;-73
2022/01/06 02:23:22;;;;;;;11.35;3.75;;;;;;;4.20;100.00;100460.97;5001266;28;20044;-72
2022/01/06 02:26:06;;;;;;;17.35;4.13;;;;;;;4.19;100.00;100469.84;5015112;28;20088;-72
2022/01/06 02:28:50;;;;;;;15.15;3.58;;;;;;;4.25;100.00;100462.38;5014938;28;20053;-73
2022/01/06 02:31:43;;;;;;;11.98;4.00;;;;;;;4.27;100.00;100470.19;5015724;28;20052;-71
2022/01/06 02:34:27;;;;;;;18.70;4.10;;;;;;;4.24;100.00;100478.28;5001056;28;20123;-72
2022/01/06 02:37:11;;;;;;;;;;;;;;;4.19;100.00;100481.25;5015051;28;20085;-73
2022/01/06 02:39:55;;;;;;;16.45;4.28;;;;;;;4.17;100.00;100482.28;5014704;28;19924;-73
2022/01/06 02:42:45;;;;;;;11.48;3.80;;;;;;;4.16;100.00;100481.44;5015716;28;20088;-71
2022/01/06 02:45:30;;;;;;;13.00;4.28;;;;;;;4.20;100.00;100484.72;5014693;28;20124;-73
2022/01/06 02:48:15;;;;;;;15.30;4.35;;;;;;;4.19;100.00;100485.66;5014286;28;20139;-73
2022/01/06 02:50:59;;;;;;;11.00;3.85;;;;;;;4.20;100.00;100492.63;5014553;28;20064;-73
2022/01/06 02:53:43;;;;;;;8.77;3.55;;;;;;;4.18;100.00;100497.16;5015797;28;20107;-73
2022/01/06 02:56:29;;;;;;;16.58;3.70;;;;;;;4.16;100.00;100499.06;5014356;28;20457;-73
2022/01/06 02:59:13;;;;;;;13.85;3.60;;;;;;;4.17;100.00;100495.47;5015191;28;20135;-72
2022/01/06 03:01:57;;;;;;;9.80;3.50;;;;;;;4.19;100.00;100496.22;5014403;28;20072;-73
2022/01/06 03:04:40;;;;;;;12.43;3.40;;;;;;;4.24;100.00;100487.06;5014133;28;20099;-73
2022/01/06 03:07:26;;;;;;;10.20;3.55;;;;;;;4.18;100.00;100502.44;5014468;28;20044;-72
2022/01/06 03:10:15;;;;;;;9.75;3.35;;;;;;;4.18;100.00;100505.91;5013610;28;20099;-72
2022/01/06 03:12:59;;;;;;;14.60;3.85;;;;;;;4.23;100.00;100506.47;5014031;28;20104;-72
2022/01/06 03:15:42;;;;;;;9.02;3.42;;;;;;;4.24;100.00;100502.03;5015150;28;20116;-72
2022/01/06 03:18:27;;;;;;;7.97;3.53;;;;;;;4.21;100.00;100512.78;5000081;28;20049;-73
2022/01/06 03:21:11;;;;;;;9.38;3.55;;;;;;;4.24;100.00;100516.09;5013966;28;20107;-73
2022/01/06 03:23:55;;;;;;;9.00;3.55;;;;;;;4.35;100.00;100520.69;5014985;28;20048;-73
2022/01/06 03:26:39;;;;;;;12.82;3.97;;;;;;;4.25;100.00;100524.88;5014569;28;20129;-73
2022/01/06 03:29:22;;;;;;;8.55;4.13;;;;;;;4.21;100.00;100524.22;5014088;28;20509;-73
2022/01/06 03:32:06;;;;;;;;;;;;;;;4.20;100.00;100522.53;5058251;23;20080;-69
2022/01/06 03:34:50;;;;;;;8.23;3.50;;;;;;;4.19;100.00;100525.25;5033406;28;19975;-69
2022/01/06 03:37:34;;;;;;;;;;;;;;;4.21;100.00;100528.63;5034035;28;20135;-72
2022/01/06 03:40:19;;;;;;;16.57;4.30;;;;;;;4.26;100.00;100521.28;5034406;28;19920;-69
2022/01/06 03:43:03;;;;;;;10.18;3.67;;;;;;;4.21;100.00;100528.63;5033173;28;20885;-71
2022/01/06 03:45:46;;;;;;;12.00;3.45;;;;;;;4.18;100.00;100532.31;5034872;28;20098;-71
2022/01/06 03:48:30;;;;;;;8.00;3.47;;;;;;;4.14;100.00;100532.59;5034151;28;20071;-71
2022/01/06 03:51:14;;;;;;;10.15;3.35;;;;;;;4.10;100.00;100528.47;5033097;28;20504;-71
2022/01/06 03:53:59;;;;;;;7.72;3.40;;;;;;;4.07;100.00;100528.66;5032921;28;20125;-71
2022/01/06 03:56:43;;;;;;;9.05;3.50;;;;;;;4.04;100.00;100527.06;5019050;28;20412;-71
2022/01/06 03:59:26;;;;;;;12.63;3.85;;;;;;;3.98;100.00;100532.72;5032854;28;20052;-71
2022/01/06 04:02:10;;;;;;;10.82;4.03;;;;;;;3.95;100.00;100532.91;5033270;28;20443;-69
2022/01/06 04:04:54;;;;;;;16.45;3.53;;;;;;;3.93;100.00;100539.22;5033062;28;20060;-72
2022/01/06 04:07:39;;;;;;;13.43;4.30;;;;;;;3.89;100.00;100543.00;5033826;28;20114;-71
2022/01/06 04:10:22;;;;;;;12.95;3.97;;;;;;;3.86;100.00;100537.94;5032651;28;20071;-71
2022/01/06 04:13:06;;;;;;;12.63;4.43;;;;;;;3.84;100.00;100543.28;5034019;28;20044;-71
2022/01/06 04:15:50;;;;;;;11.88;3.60;;;;;;;3.83;100.00;100538.09;5032455;28;20048;-71
2022/01/06 04:18:35;;;;;;;15.02;4.25;;;;;;;3.83;100.00;100533.69;5032734;28;20044;-71
2022/01/06 04:21:19;;;;;;;9.63;4.20;;;;;;;3.83;100.00;100538.09;5031879;28;20132;-71
2022/01/06 04:24:03;;;;;;;11.48;4.10;;;;;;;3.83;100.00;100538.09;5033884;28;20055;-71
2022/01/06 04:26:47;;;;;;;8.82;3.60;;;;;;;3.82;100.00;100536.41;5018570;28;20127;-71
2022/01/06 04:29:31;;;;;;;;;;;;;;;3.83;100.00;100546.00;5032974;28;20170;-72
2022/01/06 04:32:15;;;;;;;7.68;3.67;;;;;;;3.77;100.00;100551.69;5032062;28;19920;-71
2022/01/06 04:34:59;;;;;;;8.57;4.07;;;;;;;3.74;100.00;100554.53;5032442;28;20068;-70
2022/01/06 04:37:43;;;;;;;;;;;;;;;3.73;100.00;100563.34;5032722;28;20048;-71
2022/01/06 04:40:27;;;;;;;12.68;4.03;;;;;;;3.67;100.00;100561.09;5033121;28;20300;-71
2022/01/06 04:43:11;;;;;;;;;;;;;;;3.59;100.00;100564.22;5032436;28;20053;-71
2022/01/06 04:45:55;;;;;;;9.07;3.95;;;;;;;3.50;100.00;100566.53;5032297;28;19919;-71
2022/01/06 04:48:39;;;;;;;10.15;4.18;;;;;;;3.46;100.00;100583.50;5018459;28;20172;-71
2022/01/06 04:51:23;;;;;;;15.00;4.75;;;;;;;3.50;100.00;100579.72;5032054;28;20060;-71
2022/01/06 04:54:07;;;;;;;12.75;4.88;;;;;;;3.48;100.00;100579.84;5018247;28;20056;-71
2022/01/06 04:56:51;;;;;;;;;;;;;;;3.54;100.00;100586.53;5032410;28;20125;-71
2022/01/06 04:59:36;;;;;;;11.57;4.57;;;;;;;3.50;100.00;100590.25;5032850;28;19920;-71
2022/01/06 05:02:20;;;;;;;14.95;4.28;;;;;;;3.49;100.00;100596.47;5031738;28;20130;-71
2022/01/06 05:05:04;;;;;;;;;;;;;;;3.50;100.00;100599.03;5033207;28;20416;-71
2022/01/06 05:07:48;;;;;;;17.20;4.50;;;;;;;3.46;100.00;100596.69;5032030;28;19924;-71
2022/01/06 05:10:32;;;;;;;12.63;4.60;;;;;;;3.46;100.00;100601.94;5031769;28;20099;-71
2022/01/06 05:13:16;;;;;;;8.88;4.40;;;;;;;3.41;100.00;100602.22;5032810;28;20528;-71
2022/01/06 05:16:00;;;;;;;14.90;5.63;;;;;;;3.38;100.00;100604.19;5032690;28;20142;-71
2022/01/06 05:18:44;;;;;;;;;;;;;;;3.35;100.00;100604.38;5032301;28;20504;-71
2022/01/06 05:21:30;;;;;;;13.90;5.32;;;;;;;3.29;100.00;100610.00;5032742;28;19955;-71
2022/01/06 05:24:15;;;;;;;12.48;4.93;;;;;;;3.26;100.00;100618.91;5031588;28;20048;-71
2022/01/06 05:26:59;;;;;;;8.23;4.50;;;;;;;3.27;100.00;100618.00;5032837;28;20060;-71
2022/01/06 05:29:43;;;;;;;;;;;;;;;3.30;100.00;100619.59;5031928;28;20539;-71
2022/01/06 05:32:27;;;;;;;21.48;5.55;;;;;;;3.28;100.00;100632.00;5032815;28;20015;-71
2022/01/06 05:35:11;;;;;;;;;;;;;;;3.29;100.00;100637.19;5022013;28;20114;-71
2022/01/06 05:37:55;;;;;;;15.57;6.40;;;;;;;3.30;100.00;100638.03;5036711;28;19924;-71
2022/01/06 05:40:39;;;;;;;;;;;;;;;3.31;100.00;100634.47;5037375;28;20094;-71
2022/01/06 05:43:24;;;;;;;14.40;5.72;;;;;;;3.30;100.00;100630.13;5035318;28;20292;-71
2022/01/06 05:46:08;;;;;;;17.85;6.32;;;;;;;3.27;100.00;100640.84;5036593;28;20099;-71
2022/01/06 05:48:52;;;;;;;;;;;;;;;3.28;100.00;100646.03;5022027;28;20130;-72
2022/01/06 05:51:36;;;;;;;15.10;6.97;;;;;;;3.20;100.00;100647.41;5035525;28;19920;-70
2022/01/06 05:54:20;;;;;;;19.67;7.22;;;;;;;3.14;100.00;100648.63;5036255;28;20342;-71
2022/01/06 05:57:04;;;;;;;;;;;;;;;3.10;100.00;100651.50;5035841;28;20041;-71
2022/01/06 05:59:47;;;;;;;16.13;8.95;;;;;;;3.02;100.00;100640.59;5035430;28;19919;-70
2022/01/06 06:02:31;;;;;;;22.08;8.95;;;;;;;2.98;100.00;100646.97;5036395;28;20103;-71
2022/01/06 06:05:15;;;;;;;;;;;;;;;3.00;100.00;100648.56;5035878;28;20056;-71
2022/01/06 06:07:59;;;;;;;20.63;9.27;;;;;;;2.94;100.00;100656.81;5035050;28;19920;-70
2022/01/06 06:10:43;;;;;;;18.98;8.88;;;;;;;2.89;100.00;100650.97;5021017;28;20122;-70
2022/01/06 06:13:27;;;;;;;21.63;9.07;;;;;;;2.84;100.00;100660.06;5036018;28;20549;-71
2022/01/06 06:16:11;;;;;;;;;;;;;;;2.83;100.00;100663.63;5035361;28;20144;-71
2022/01/06 06:18:55;;;;;;;18.48;8.68;;;;;;;2.77;100.00;100674.50;5035968;28;19928;-71
2022/01/06 06:21:38;;;;;;;;;;;;;;;2.76;100.00;100678.94;5036151;28;20132;-68
2022/01/06 06:24:23;;;;;;;20.77;9.43;;;;;;;2.70;100.00;100695.06;5021202;28;19920;-71
2022/01/06 06:27:07;;;;;;;18.83;9.63;;;;;;;2.72;100.00;100698.44;5034769;28;20041;-70
2022/01/06 06:29:51;;;;;;;27.25;10.88;;;;;;;2.74;100.00;100706.28;5035789;28;20048;-71
2022/01/06 06:32:35;;;;;;;19.42;9.13;;;;;;;2.79;100.00;100712.13;5034299;28;20052;-70
2022/01/06 06:35:19;;;;;;;26.20;9.27;;;;;;;2.79;100.00;100709.47;5034319;28;20083;-71
2022/01/06 06:38:03;;;;;;;23.98;10.00;;;;;;;2.82;100.00;100714.59;5020494;28;20417;-71
2022/01/06 06:40:47;;;;;;;;;;;;;;;2.84;100.00;100713.56;5035663;28;20072;-70
2022/01/06 06:43:31;;;;;;;18.02;7.88;;;;;;;2.88;100.00;100719.50;5020327;28;19967;-71
2022/01/06 06:46:15;;;;;;;18.00;8.52;;;;;;;2.86;100.00;100711.72;5035018;28;20052;-71
2022/01/06 06:48:59;;;;;;;;;;;;;;;2.86;100.00;100716.97;5034587;28;20068;-71
2022/01/06 06:51:43;;;;;;;20.38;8.98;;;;;;;2.90;100.00;100722.91;5034607;28;20058;-70
2022/01/06 06:54:27;;;;;;;;;;;;;;;2.96;100.00;100717.31;5034780;28;20128;-70
2022/01/06 06:57:11;;;;;;;29.67;10.38;;;;;;;2.99;100.00;100717.97;5035214;28;20010;-70
2022/01/06 06:59:56;;;;;;;19.38;9.52;;;;;;;3.05;100.00;100720.25;5035078;28;20126;-71
2022/01/06 07:02:40;;;;;;;24.70;10.55;;;;;;;3.02;100.00;100719.59;5020146;28;20102;-71
2022/01/06 07:05:24;;;;;;;;;;;;;;;3.04;100.00;100720.38;5035642;28;20048;-70
2022/01/06 07:08:08;;;;;;;24.67;9.48;;;;;;;3.06;100.00;100724.59;5034323;28;19920;-71
2022/01/06 07:10:52;;;;;;;;;;;;;;;3.08;100.00;100724.50;5020277;28;20449;-71
2022/01/06 07:13:36;;;;;;;27.17;9.85;;;;;;;3.09;100.00;100728.84;5019983;28;20237;-71
2022/01/06 07:16:20;;;;;;;;;;;;;;;3.18;100.00;100736.22;5036089;28;20156;-71
2022/01/06 07:19:04;;;;;;;23.15;9.35;;;;;;;3.19;100.00;100733.53;5044065;28;19982;-71
2022/01/06 07:21:48;;;;;;;24.65;9.55;;;;;;;3.13;100.00;100740.91;5029039;28;20574;-71
2022/01/06 07:24:32;;;;;;;;;;;;;;;3.15;100.00;100739.03;5041018;28;20043;-71
2022/01/06 07:27:16;;;;;;;22.05;9.95;;;;;;;3.17;100.00;100743.31;5033870;28;19920;-71
2022/01/06 07:29:59;;;;;;;16.67;9.30;;;;;;;3.18;100.00;100738.88;5033738;28;20539;-71
2022/01/06 07:32:48;;;;;;;;;;;;;;;3.19;100.00;100745.81;5033680;28;20584;-71
2022/01/06 07:35:32;;;;;;;22.60;9.65;;;;;;;3.21;100.00;100744.81;5034679;28;19919;-72
2022/01/06 07:38:17;;;;;;;23.90;8.95;;;;;;;3.23;100.00;100744.75;5034264;28;20152;-72
2022/01/06 07:41:01;;;;;;;22.85;9.43;;;;;;;3.26;100.00;100747.19;5033454;28;20049;-71
2022/01/06 07:43:45;;;;;;;;;;;;;;;3.20;100.00;100758.06;5033813;28;20052;-72
2022/01/06 07:46:29;;;;;;;19.17;9.30;;;;;;;3.18;100.00;100749.41;5034294;28;19925;-72
2022/01/06 07:49:13;;;;;;;18.80;9.77;;;;;;;3.21;100.00;100765.03;5019162;28;20048;-71
2022/01/06 07:51:57;;;;;;;21.48;8.85;;;;;;;3.17;100.00;100768.78;5019382;28;20080;-71
2022/01/06 07:54:41;;;;;;;;;;;;;;;3.18;100.00;100770.47;5033569;28;20099;-69
2022/01/06 07:57:25;;;;;;;18.67;10.30;;;;;;;3.19;100.00;100775.66;5031775;28;19924;-71
2022/01/06 08:00:10;;;;;;;20.70;9.10;;;;;;;3.25;100.00;100782.38;5034061;28;20187;-72
2022/01/06 08:02:54;;;;;;;20.17;9.63;;;;;;;3.29;100.00;100771.59;5032956;28;20087;-71
2022/01/06 08:05:38;;;;;;;18.23;8.98;;;;;;;3.33;100.00;100777.53;5032833;28;20468;-71
2022/01/06 08:08:21;;;;;;;;;;;;;;;3.40;100.00;100784.13;5034177;28;20469;-72
2022/01/06 08:11:05;;;;;;;22.10;9.80;;;;;;;3.42;100.00;100783.13;5033875;28;20332;-72
2022/01/06 08:13:50;;;;;;;29.55;10.80;;;;;;;3.42;100.00;100784.88;5032752;28;20147;-71
2022/01/06 08:16:34;;;;;;;;;;;;;;;3.45;100.00;100790.00;5033128;28;20044;-71
2022/01/06 08:19:18;;;;;;;20.50;10.68;;;;;;;3.45;100.00;100785.56;5032790;28;19935;-71
2022/01/06 08:22:02;;;;;;;22.67;10.75;;;;;;;3.47;100.00;100791.59;5032386;28;20099;-71
2022/01/06 08:24:47;;;;;;;22.27;10.43;;;;;;;3.44;100.00;100790.94;5018758;28;20045;-71
2022/01/06 08:27:30;;;;;;;20.40;9.60;;;;;;;3.50;100.00;100788.81;5033671;28;20134;-71
2022/01/06 08:30:14;;;;;;;21.50;9.98;;;;;;;3.50;100.00;100795.84;5032291;28;20071;-71
2022/01/06 08:32:59;;;;;;;25.10;10.38;;;;;;;3.65;100.00;100802.91;5032104;28;20102;-71
2022/01/06 08:35:43;;;;;;;26.98;9.48;;;;;;;3.75;100.00;100814.63;5032418;28;20044;-71
2022/01/06 08:38:29;;;;;;;18.40;8.40;;;;;;;3.95;100.00;100809.03;5032276;28;20055;-72
2022/01/06 08:41:12;;;;;;;16.25;7.25;;;;;;;3.90;100.00;100811.94;5032203;28;20508;-71
2022/01/06 08:43:56;;;;;;;13.38;7.93;;;;;;;4.05;100.00;100810.19;5033077;28;20520;-70
2022/01/06 08:46:41;;;;;;;16.45;7.15;;;;;;;4.10;100.00;100811.63;5033328;28;20144;-72
2022/01/06 08:49:25;;;;;;;15.43;6.70;;;;;;;3.94;100.00;100809.97;5032243;28;20508;-71
2022/01/06 08:52:09;;;;;;;13.00;7.28;;;;;;;3.77;100.00;100812.75;5032113;28;20071;-71
2022/01/06 08:54:53;;;;;;;13.73;7.68;;;;;;;3.83;100.00;100820.28;5031920;28;20076;-71
2022/01/06 08:57:37;;;;;;;18.20;7.40;;;;;;;4.12;100.00;100820.28;5018019;28;20049;-72
2022/01/06 09:00:20;;;;;;;12.90;5.88;;;;;;;5.04;100.00;100824.19;5031799;28;20099;-72
2022/01/06 09:03:05;;;;;;;7.80;5.25;;;;;;;5.98;100.00;100819.81;5031812;28;20520;-72
2022/01/06 09:05:49;;;;;;;18.40;4.53;;;;;;;6.84;100.00;100817.34;5031722;28;20515;-72
2022/01/06 09:08:34;;;;;;;9.15;4.20;;;;;;;6.88;96.81;100813.50;5031600;28;20197;-71
2022/01/06 09:11:18;;;;;;;8.85;4.45;;;;;;;6.05;100.00;100821.09;5031614;28;20079;-71
2022/01/06 09:14:02;;;;;;;10.23;4.75;;;;;;;5.37;100.00;100829.16;5032652;28;20127;-71
2022/01/06 09:16:46;;;;;;;10.52;5.35;;;;;;;5.18;100.00;100837.41;5032780;28;20048;-71
2022/01/06 09:19:31;;;;;;;14.25;5.80;;;;;;;5.91;100.00;100839.69;5031489;28;20136;-71
2022/01/06 09:22:15;;;;;;;10.10;5.00;;;;;;;6.96;100.00;100840.31;5031752;28;20131;-69
2022/01/06 09:24:59;;;;;;;12.13;4.45;;;;;;;7.31;98.77;100833.38;5032488;28;20052;-71
2022/01/06 09:27:43;;;;;;;10.50;4.70;;;;;;;8.37;90.52;100817.34;5031510;28;20095;-72
2022/01/06 09:30:27;;;;;;;8.05;4.50;;;;;;;7.88;88.92;100834.41;5032696;28;20115;-72
2022/01/06 09:33:12;;;;;;;14.25;5.63;;;;;;;7.71;93.09;100834.81;5031268;28;20130;-72
2022/01/06 09:35:56;;;;;;;10.68;5.53;;;;;;;8.36;90.29;100834.25;5053150;22;20225;-73
2022/01/06 09:38:41;;;;;;;12.38;5.43;;;;;;;8.13;86.54;100834.31;5011911;28;20045;-73
2022/01/06 09:41:30;;;;;;;12.18;5.28;;;;;;;8.45;85.23;100846.84;5011719;28;20568;-72
2022/01/06 09:44:14;;;;;;;11.82;5.20;;;;;;;9.81;81.42;100847.44;5012765;28;20137;-73
2022/01/06 09:46:58;;;;;;;7.95;4.70;;;;;;;10.02;76.52;100845.69;5011828;28;20069;-73
2022/01/06 09:49:44;;;;;;;11.00;4.97;;;;;;;10.34;69.95;100856.22;5011692;28;20133;-72
2022/01/06 09:52:29;;;;;;;9.73;4.85;;;;;;;9.52;72.23;100857.81;5011796;28;20061;-72
2022/01/06 09:55:13;;;;;;;10.32;5.35;;;;;;;10.78;71.98;100857.78;5011690;28;20048;-72
2022/01/06 09:57:59;;;;;;;12.85;6.07;;;;;;;11.18;69.61;100859.53;5012452;28;20091;-74
2022/01/06 10:00:46;;;;;;;13.40;7.00;;;;;;;9.37;75.87;100868.84;4997822;28;20083;-72
2022/01/06 10:03:42;;;;;;;11.70;6.80;;;;;;;11.93;68.05;100857.25;5012933;28;20056;-71
2022/01/06 10:06:28;;;;;;;8.45;5.65;;;;;;;13.35;60.24;100857.94;5011296;28;20045;-71
2022/01/06 10:09:12;;;;;;;9.75;5.65;;;;;;;14.04;57.12;100853.72;5011702;28;20156;-73
2022/01/06 10:11:57;;;;;;;;;;;;;;;13.76;55.10;100859.28;4997871;28;20121;-71
2022/01/06 10:14:49;;;;;;;8.95;5.60;;;;;;;15.09;52.46;100863.50;5011296;28;20281;-72
2022/01/06 10:17:33;;;;;;;13.90;6.15;;;;;;;15.43;52.57;100867.91;5011540;28;20088;-72
2022/01/06 10:20:23;;;;;;;11.18;5.82;;;;;;;17.03;49.19;100858.28;5014093;28;20052;-71
2022/01/06 10:23:13;;;;;;;10.60;6.05;;;;;;;13.91;52.28;100863.13;5001380;28;20080;-72
2022/01/06 10:25:57;;;;;;;10.00;5.75;;;;;;;14.49;53.40;100864.41;5016273;28;20057;-72
2022/01/06 10:28:41;;;;;;;;;;;;;;;15.52;47.71;100860.75;5015474;28;20048;-73
2022/01/06 10:31:27;;;;;;;11.57;4.13;;;;;;;16.71;47.78;100858.34;5014760;28;20385;-72
2022/01/06 10:34:12;;;;;;;9.88;4.68;;;;;;;18.99;43.32;100851.25;5014401;28;20095;-72
2022/01/06 10:36:55;;;;;;;6.50;2.78;;;;;;;14.76;44.33;100865.13;5001034;28;20096;-72
2022/01/06 10:39:43;;;;;;;;;;;;;;;13.08;48.40;100865.94;5015161;28;20056;-72
2022/01/06 10:42:32;;;;;;;6.22;2.90;;;;;;;12.18;52.40;100868.25;5014458;28;20388;-72
2022/01/06 10:45:21;;;;;;;7.82;2.90;;;;;;;12.12;51.57;100871.50;5015864;28;20100;-72
2022/01/06 10:48:05;;;;;;;7.43;3.40;;;;;;;12.50;54.70;100871.50;5014658;28;20556;-72
2022/01/06 10:50:56;;;;;;;7.18;2.95;;;;;;;13.13;54.90;100860.97;5014311;28;20048;-72
2022/01/06 10:53:50;;;;;;;11.32;3.20;;;;;;;12.34;53.34;100863.22;5015601;28;20049;-72
2022/01/06 10:56:34;;;;;;;7.93;3.05;;;;;;;10.45;56.21;100876.66;5015188;28;20179;-71
2022/01/06 10:59:24;;;;;;;6.53;2.67;;;;;;;10.11;58.54;100871.59;5015457;28;20044;-70
2022/01/06 11:02:08;;;;;;;6.93;2.45;;;;;;;10.91;59.09;100864.63;5014570;28;20049;-72
2022/01/06 11:04:51;;;;;;;9.52;2.65;;;;;;;12.16;57.27;100856.88;5014341;28;20468;-72
2022/01/06 11:07:35;;;;;;;9.88;2.78;;;;;;;13.87;49.99;100851.03;5015642;28;20073;-73
2022/01/06 11:10:22;;;;;;;15.30;2.83;;;;;;;12.90;49.73;100856.09;5014102;28;20057;-72
2022/01/06 11:13:06;;;;;;;8.85;2.50;;;;;;;10.99;52.62;100867.47;5000708;28;20064;-73
2022/01/06 11:15:50;;;;;;;6.47;2.10;;;;;;;10.17;56.39;100881.72;5014860;28;20048;-72
2022/01/06 11:18:38;;;;;;;8.02;2.50;;;;;;;10.36;56.67;100870.25;5013808;28;20053;-72
2022/01/06 11:21:39;;;;;;;9.35;3.20;;;;;;;10.39;57.04;100862.03;5000244;28;20048;-72
2022/01/06 11:24:24;;;;;;;9.45;2.70;;;;;;;9.30;59.05;100867.63;5015014;28;20580;-72
2022/01/06 11:27:10;;;;;;;5.45;2.40;;;;;;;9.45;61.87;100866.38;5000037;28;20112;-71
2022/01/06 11:29:54;;;;;;;8.07;2.97;;;;;;;8.43;63.51;100869.19;5000081;28;20057;-72
2022/01/06 11:32:38;;;;;;;7.68;2.22;;;;;;;9.53;60.68;100863.97;5013537;28;20080;-72
2022/01/06 11:35:22;;;;;;;8.75;2.65;;;;;;;9.78;59.65;100866.34;4999658;28;20107;-72
2022/01/06 11:38:07;;;;;;;9.90;2.63;;;;;;;10.07;59.42;100864.81;5014520;28;20563;-72
2022/01/06 11:41:07;;;;;;;6.40;1.90;;;;;;;10.34;57.51;100863.38;5014732;28;20116;-72
2022/01/06 11:43:51;;;;;;;6.13;2.65;;;;;;;9.79;58.83;100858.22;4999611;28;20080;-71
2022/01/06 11:46:42;;;;;;;5.35;1.85;;;;;;;8.54;61.94;100861.28;5013332;28;20049;-71
2022/01/06 11:49:44;;;;;;;9.55;2.53;;;;;;;8.06;64.74;100865.75;5014526;28;20070;-72
2022/01/06 11:52:28;;;;;;;14.02;3.35;;;;;;;8.13;67.33;100863.50;5013450;28;20049;-73
2022/01/06 11:55:14;;;;;;;11.10;2.83;;;;;;;7.75;67.17;100860.19;5013285;28;20418;-72
2022/01/06 11:58:07;;;;;;;8.20;2.70;;;;;;;7.74;69.39;100858.50;5013100;28;20432;-72
2022/01/06 12:00:59;;;;;;;6.25;2.50;;;;;;;7.92;66.16;100865.06;5013221;28;20044;-72
2022/01/06 12:03:46;;;;;;;8.57;2.45;;;;;;;8.82;64.20;100859.03;5013264;28;20065;-71
2022/01/06 12:06:32;;;;;;;5.32;2.17;;;;;;;8.61;64.86;100857.16;5014477;28;20489;-71
2022/01/06 12:09:20;;;;;;;9.82;2.70;;;;;;;9.82;62.33;100854.47;5013044;28;20055;-72
2022/01/06 12:12:09;;;;;;;6.15;2.35;;;;;;;9.64;58.92;100866.59;5014105;28;20112;-72
2022/01/06 12:15:21;;;;;;;5.88;2.13;;;;;;;8.11;63.73;100862.75;5012701;28;20449;-72
2022/01/06 12:18:05;;;;;;;12.23;3.08;;;;;;;8.46;63.33;100858.34;5013799;28;20179;-72
2022/01/06 12:20:50;;;;;;;10.60;4.07;;;;;;;8.55;68.26;100855.00;5013806;28;20115;-72
2022/01/06 12:23:34;;;;;;;12.45;5.47;;;;;;;7.85;78.75;100855.88;5013966;28;20108;-72
2022/01/06 12:26:18;;;;;;;14.70;4.97;;;;;;;7.83;79.93;100857.81;4998643;28;20529;-72
2022/01/06 12:29:06;;;;;;;11.88;4.20;;;;;;;7.41;81.06;100860.94;5012862;28;20504;-72
2022/01/06 12:31:51;;;;;;;13.13;4.95;;;;;;;7.33;85.02;100855.31;4999271;28;20509;-71
2022/01/06 12:34:35;;;;;;;13.95;4.32;;;;;;;7.48;82.94;100854.22;4998490;28;20405;-72
2022/01/06 12:37:29;;;;;;;11.57;5.50;;;;;;;7.52;82.16;100853.06;5013666;28;20053;-71
2022/01/06 12:40:13;;;;;;;12.25;4.35;;;;;;;7.62;82.53;100854.09;5012852;28;20129;-72
2022/01/06 12:42:57;;;;;;;14.80;5.72;;;;;;;7.48;81.93;100842.78;5013242;28;20057;-71
2022/01/06 12:45:42;;;;;;;14.90;4.70;;;;;;;7.84;79.63;100838.28;5012397;28;20125;-72
2022/01/06 12:48:31;;;;;;;17.92;4.22;;;;;;;7.98;75.51;100846.06;4998600;28;20608;-72
2022/01/06 12:51:19;;;;;;;13.85;4.53;;;;;;;8.11;75.49;100847.69;5012481;28;20152;-72
2022/01/06 12:54:16;;;;;;;11.55;4.18;;;;;;;8.12;73.60;100840.53;4998564;28;20485;-72
2022/01/06 12:57:06;;;;;;;17.38;4.60;;;;;;;8.68;75.76;100839.78;5012442;28;20044;-72
2022/01/06 12:59:55;;;;;;;9.65;4.63;;;;;;;8.37;75.55;100837.78;5012238;28;20111;-72
2022/01/06 13:02:39;;;;;;;14.27;4.38;;;;;;;8.89;74.14;100851.41;5012042;28;20103;-72
2022/01/06 13:05:23;;;;;;;12.43;4.63;;;;;;;8.69;75.39;100844.13;4998202;28;20049;-72
2022/01/06 13:08:07;;;;;;;11.20;4.28;;;;;;;9.09;76.26;100837.41;5012018;28;20048;-72